Time;durP1;ratioP1;P1;durP2;ratioP2;P2;SDS_P1;SDS_P2;PMS_P1;PMS_P2;Temp;Humidity;BMP_temperature;BMP_pressure;BME280_temperature;BME280_humidity;BME280_pressure;Samples;Min_cycle;Max_cycle;Signal;HPM_P1;HPM_P2
2023/01/03 00:01:18;;;;;;;23.65;12.30;;;;;;;;;;5104566;28;20428;-79
2023/01/03 00:03:44;;;;;;;23.52;13.13;;;;;;;;;;5109678;28;20077;-79
2023/01/03 00:06:25;;;;;;;24.15;13.38;;;;;;;;;;5099585;28;20023;-77
2023/01/03 00:08:52;;;;;;;29.45;14.50;;;;;;;;;;5092557;28;20418;-79
2023/01/03 00:12:22;;;;;;;23.77;13.52;;;;;;;;;;5112343;28;20107;-79
2023/01/03 00:14:05;;;;;;;23.85;12.70;;;;;;;;;;5108948;28;20031;-79
2023/01/03 00:16:31;;;;;;;23.50;12.60;;;;;;;;;;5108772;28;20028;-79
2023/01/03 00:18:57;;;;;;;27.40;14.35;;;;;;;;;;5109166;28;20508;-78
2023/01/03 00:21:23;;;;;;;25.30;13.73;;;;;;;;;;5099481;28;20023;-79
2023/01/03 00:23:49;;;;;;;26.92;13.65;;;;;;;;;;5111880;28;20028;-80
2023/01/03 00:26:15;;;;;;;27.73;13.77;;;;;;;;;;5107605;28;20035;-79
2023/01/03 00:28:42;;;;;;;21.67;12.85;;;;;;;;;;5109023;28;20424;-79
2023/01/03 00:31:08;;;;;;;23.65;13.48;;;;;;;;;;5106866;28;20019;-79
2023/01/03 00:33:35;;;;;;;25.67;15.20;;;;;;;;;;5111543;28;20087;-79
2023/01/03 00:36:02;;;;;;;25.35;13.55;;;;;;;;;;5110804;28;20036;-79
2023/01/03 00:38:28;;;;;;;21.00;11.80;;;;;;;;;;5112897;28;20031;-79
2023/01/03 00:40:54;;;;;;;24.20;13.25;;;;;;;;;;5113975;28;20503;-79
2023/01/03 00:43:29;;;;;;;22.13;12.35;;;;;;;;;;5109090;28;20036;-80
2023/01/03 00:45:55;;;;;;;28.08;14.40;;;;;;;;;;5102539;28;20524;-79
2023/01/03 00:48:21;;;;;;;26.60;14.32;;;;;;;;;;5103031;28;20023;-79
2023/01/03 00:50:47;;;;;;;24.10;13.40;;;;;;;;;;5100364;28;20039;-79
2023/01/03 00:53:13;;;;;;;27.38;12.70;;;;;;;;;;5106940;28;20378;-79
2023/01/03 00:55:40;;;;;;;28.83;13.30;;;;;;;;;;5104891;28;20073;-79
2023/01/03 00:58:06;;;;;;;25.55;13.88;;;;;;;;;;5108332;28;20439;-79
2023/01/03 01:00:32;;;;;;;26.15;14.35;;;;;;;;;;5099805;28;20052;-80
2023/01/03 01:02:58;;;;;;;25.77;13.35;;;;;;;;;;5109889;28;20031;-79
2023/01/03 01:05:24;;;;;;;26.65;13.10;;;;;;;;;;5096510;28;20471;-79
2023/01/03 01:07:50;;;;;;;26.05;12.68;;;;;;;;;;5106687;28;20045;-79
2023/01/03 01:10:18;;;;;;;25.20;13.82;;;;;;;;;;5105072;28;20050;-79
2023/01/03 01:12:44;;;;;;;27.75;13.35;;;;;;;;;;5107049;28;20384;-79
2023/01/03 01:15:11;;;;;;;26.88;13.50;;;;;;;;;;5099422;28;20027;-79
2023/01/03 01:17:37;;;;;;;24.00;14.02;;;;;;;;;;5102994;28;20031;-79
2023/01/03 01:20:03;;;;;;;28.98;13.63;;;;;;;;;;5093981;28;20032;-79
2023/01/03 01:22:29;;;;;;;25.67;13.52;;;;;;;;;;5092144;28;20439;-79
2023/01/03 01:24:55;;;;;;;28.42;14.27;;;;;;;;;;5094965;28;20039;-79
2023/01/03 01:27:21;;;;;;;24.13;13.30;;;;;;;;;;5102817;28;20019;-79
2023/01/03 01:29:47;;;;;;;23.67;13.57;;;;;;;;;;5093300;28;20020;-79
2023/01/03 01:32:13;;;;;;;24.90;13.50;;;;;;;;;;5099905;28;20019;-79
2023/01/03 01:34:39;;;;;;;22.73;12.00;;;;;;;;;;5108128;28;20122;-80
2023/01/03 01:37:05;;;;;;;21.23;12.32;;;;;;;;;;5093936;28;20476;-79
2023/01/03 01:39:31;;;;;;;24.25;12.23;;;;;;;;;;5092146;28;20024;-79
2023/01/03 01:44:43;;;;;;;19.17;12.05;;;;;;;;;;5065471;28;20048;-79
2023/01/03 01:47:17;;;;;;;21.80;12.18;;;;;;;;;;5054654;28;20048;-79
2023/01/03 01:49:44;;;;;;;25.70;13.55;;;;;;;;;;5050996;28;20021;-78
2023/01/03 01:52:10;;;;;;;26.05;12.38;;;;;;;;;;5057200;28;20028;-79
2023/01/03 01:54:39;;;;;;;24.13;12.65;;;;;;;;;;5059790;28;20063;-78
2023/01/03 01:57:05;;;;;;;23.42;12.10;;;;;;;;;;5057566;28;20063;-79
2023/01/03 01:59:31;;;;;;;22.55;12.30;;;;;;;;;;5059312;28;20310;-79
2023/01/03 02:01:58;;;;;;;26.45;13.05;;;;;;;;;;5063738;28;20108;-79
2023/01/03 02:04:26;;;;;;;28.33;14.18;;;;;;;;;;5051549;28;20067;-79
2023/01/03 02:06:52;;;;;;;30.95;14.65;;;;;;;;;;5067349;28;20354;-79
2023/01/03 02:09:18;;;;;;;25.33;13.43;;;;;;;;;;5062477;28;20020;-79
2023/01/03 02:14:47;;;;;;;30.65;14.18;;;;;;;;;;5053347;28;20098;-78
2023/01/03 02:17:23;;;;;;;33.65;15.15;;;;;;;;;;5061586;28;20028;-78
2023/01/03 02:20:02;;;;;;;26.95;13.30;;;;;;;;;;5059034;28;20029;-79
2023/01/03 02:22:37;;;;;;;22.95;12.63;;;;;;;;;;5051732;28;20039;-79
2023/01/03 02:25:09;;;;;;;27.38;13.02;;;;;;;;;;5067207;28;20035;-79
2023/01/03 02:27:54;;;;;;;29.75;13.90;;;;;;;;;;5052963;28;20438;-79
2023/01/03 02:30:26;;;;;;;27.73;12.98;;;;;;;;;;5055022;28;20418;-78
2023/01/03 02:33:10;;;;;;;27.83;12.87;;;;;;;;;;5050146;28;20021;-78
2023/01/03 02:35:41;;;;;;;23.25;12.07;;;;;;;;;;5061896;28;20390;-79
2023/01/03 02:38:13;;;;;;;25.45;12.75;;;;;;;;;;5066264;28;20424;-79
2023/01/03 02:40:44;;;;;;;30.63;13.35;;;;;;;;;;5069367;28;20041;-79
2023/01/03 02:43:29;;;;;;;22.42;12.65;;;;;;;;;;5074285;28;20058;-79
2023/01/03 02:45:56;;;;;;;24.70;12.77;;;;;;;;;;5110192;28;20035;-78
2023/01/03 02:48:31;;;;;;;28.95;13.77;;;;;;;;;;5110020;28;20019;-79
2023/01/03 02:50:59;;;;;;;23.95;12.95;;;;;;;;;;5108616;28;20016;-79
2023/01/03 02:53:27;;;;;;;27.27;12.82;;;;;;;;;;5105107;28;20015;-79
2023/01/03 02:55:56;;;;;;;25.95;13.70;;;;;;;;;;5108996;28;20069;-79
2023/01/03 02:58:24;;;;;;;32.42;14.95;;;;;;;;;;5107211;28;20028;-78
2023/01/03 03:00:54;;;;;;;29.30;14.32;;;;;;;;;;5099398;28;20107;-79
2023/01/03 03:03:22;;;;;;;28.00;15.02;;;;;;;;;;5103865;28;20072;-79
2023/01/03 03:05:51;;;;;;;25.30;13.02;;;;;;;;;;5113687;28;20031;-79
2023/01/03 03:08:17;;;;;;;25.38;13.48;;;;;;;;;;5109422;28;20047;-78
2023/01/03 03:13:40;;;;;;;24.30;13.00;;;;;;;;;;5105377;27;20108;-78
2023/01/03 03:16:06;;;;;;;23.75;12.77;;;;;;;;;;5094955;28;20484;-79
2023/01/03 03:18:45;;;;;;;20.80;12.98;;;;;;;;;;5092789;28;20109;-79
2023/01/03 03:26:47;;;;;;;25.48;14.10;;;;;;;;;;5095985;28;20043;-79
2023/01/03 03:29:15;;;;;;;25.85;14.15;;;;;;;;;;5093796;28;20020;-79
2023/01/03 03:31:46;;;;;;;25.55;13.43;;;;;;;;;;5105424;28;20024;-79
2023/01/03 03:34:17;;;;;;;20.00;12.13;;;;;;;;;;5095404;28;20024;-78
2023/01/03 03:36:49;;;;;;;23.30;13.35;;;;;;;;;;5098420;28;20111;-78
2023/01/03 03:45:27;;;;;;;23.27;12.90;;;;;;;;;;5101664;28;20579;-78
2023/01/03 03:48:04;;;;;;;21.42;12.52;;;;;;;;;;5106235;28;20032;-78
2023/01/03 03:50:32;;;;;;;21.50;12.05;;;;;;;;;;5094849;28;20020;-78
2023/01/03 03:53:00;;;;;;;25.27;13.18;;;;;;;;;;5099434;28;20110;-78
2023/01/03 03:55:44;;;;;;;21.50;12.82;;;;;;;;;;5112581;28;20440;-78
2023/01/03 03:58:30;;;;;;;20.92;13.43;;;;;;;;;;5110498;28;20077;-79
2023/01/03 04:00:57;;;;;;;24.58;13.25;;;;;;;;;;5094806;28;20051;-78
2023/01/03 04:03:23;;;;;;;22.50;13.10;;;;;;;;;;5093848;28;20024;-79
2023/01/03 04:05:52;;;;;;;26.40;13.93;;;;;;;;;;5109458;28;20023;-78
2023/01/03 04:08:18;;;;;;;22.92;13.02;;;;;;;;;;5108060;28;20370;-79
2023/01/03 04:10:44;;;;;;;24.08;14.07;;;;;;;;;;5093614;28;20389;-78
2023/01/03 04:13:11;;;;;;;21.30;12.98;;;;;;;;;;5103485;28;20024;-79
2023/01/03 04:15:37;;;;;;;25.73;13.65;;;;;;;;;;5093221;28;20035;-78
2023/01/03 04:18:03;;;;;;;22.55;12.85;;;;;;;;;;5092895;28;20447;-78
2023/01/03 04:20:29;;;;;;;23.80;13.40;;;;;;;;;;5100706;28;20019;-79
2023/01/03 04:22:55;;;;;;;25.77;13.65;;;;;;;;;;5105445;28;20051;-78
2023/01/03 04:25:21;;;;;;;23.35;13.68;;;;;;;;;;5097310;28;20035;-79
2023/01/03 04:27:47;;;;;;;23.63;13.10;;;;;;;;;;5106997;28;20031;-77
2023/01/03 04:30:14;;;;;;;24.40;14.70;;;;;;;;;;5110945;28;20043;-77
2023/01/03 04:32:40;;;;;;;23.05;13.73;;;;;;;;;;5096667;28;20024;-77
2023/01/03 04:35:06;;;;;;;23.17;13.88;;;;;;;;;;5103977;28;20036;-77
2023/01/03 04:37:32;;;;;;;25.70;13.32;;;;;;;;;;5109404;28;20032;-79
2023/01/03 04:39:58;;;;;;;25.17;14.30;;;;;;;;;;5092894;28;20032;-79
2023/01/03 04:45:09;;;;;;;25.77;14.85;;;;;;;;;;5094240;28;20460;-79
2023/01/03 04:47:35;;;;;;;26.38;14.18;;;;;;;;;;5092651;28;20044;-79
2023/01/03 04:50:01;;;;;;;26.63;13.75;;;;;;;;;;5105592;28;20079;-79
2023/01/03 04:52:28;;;;;;;24.15;14.32;;;;;;;;;;5104871;28;20015;-79
2023/01/03 04:54:54;;;;;;;26.35;15.05;;;;;;;;;;5103662;28;21348;-79
2023/01/03 04:57:20;;;;;;;24.00;13.82;;;;;;;;;;5110432;28;20033;-78
2023/01/03 04:59:46;;;;;;;25.50;15.20;;;;;;;;;;5098210;28;20035;-79
2023/01/03 05:02:12;;;;;;;24.77;14.57;;;;;;;;;;5099244;28;20038;-77
2023/01/03 05:04:38;;;;;;;23.98;14.43;;;;;;;;;;5104255;28;20103;-77
2023/01/03 05:07:04;;;;;;;25.10;15.35;;;;;;;;;;5096891;28;20012;-77
2023/01/03 05:09:30;;;;;;;22.90;14.50;;;;;;;;;;5107427;28;20053;-77
2023/01/03 05:11:56;;;;;;;22.10;12.98;;;;;;;;;;5107548;28;20110;-79
2023/01/03 05:14:23;;;;;;;26.55;15.00;;;;;;;;;;5095913;28;20022;-78
2023/01/03 05:16:49;;;;;;;25.02;13.43;;;;;;;;;;5094187;28;20024;-79
2023/01/03 05:19:21;;;;;;;25.48;14.63;;;;;;;;;;5094844;28;20390;-79
2023/01/03 05:25:48;;;;;;;24.27;13.88;;;;;;;;;;5106718;28;20108;-79
2023/01/03 05:27:21;;;;;;;24.23;13.32;;;;;;;;;;5103854;27;20023;-79
2023/01/03 05:29:49;;;;;;;26.55;14.38;;;;;;;;;;5093137;28;20035;-80
2023/01/03 05:32:15;;;;;;;26.45;14.13;;;;;;;;;;5101990;28;20008;-79
2023/01/03 05:34:41;;;;;;;26.50;14.77;;;;;;;;;;5094628;28;20077;-78
2023/01/03 05:37:07;;;;;;;25.45;15.00;;;;;;;;;;5100486;28;20390;-79
2023/01/03 05:39:33;;;;;;;23.40;14.20;;;;;;;;;;5110453;28;20454;-79
2023/01/03 05:41:59;;;;;;;27.50;15.32;;;;;;;;;;5108844;28;20107;-79
2023/01/03 05:44:25;;;;;;;23.30;14.00;;;;;;;;;;5108419;28;20098;-78
2023/01/03 05:46:51;;;;;;;28.67;15.95;;;;;;;;;;5110715;28;20023;-79
2023/01/03 05:49:17;;;;;;;25.20;14.18;;;;;;;;;;5095330;28;20027;-79
2023/01/03 05:51:43;;;;;;;25.23;13.93;;;;;;;;;;5103507;28;20031;-78
2023/01/03 05:54:12;;;;;;;24.77;12.77;;;;;;;;;;5099664;28;20028;-79
2023/01/03 05:56:38;;;;;;;22.60;13.55;;;;;;;;;;5094364;28;20043;-78
2023/01/03 05:59:06;;;;;;;27.02;15.20;;;;;;;;;;5102898;28;20028;-79
2023/01/03 06:01:32;;;;;;;27.27;16.25;;;;;;;;;;5098062;28;20034;-79
2023/01/03 06:03:58;;;;;;;27.17;14.98;;;;;;;;;;5100299;28;20031;-78
2023/01/03 06:06:24;;;;;;;29.70;16.42;;;;;;;;;;5105117;28;20023;-79
2023/01/03 06:08:50;;;;;;;25.45;14.85;;;;;;;;;;5097596;28;20035;-80
2023/01/03 06:11:17;;;;;;;25.80;15.55;;;;;;;;;;5092672;28;20440;-79
2023/01/03 06:13:43;;;;;;;26.85;15.07;;;;;;;;;;5096532;28;20061;-79
2023/01/03 06:18:55;;;;;;;25.20;14.20;;;;;;;;;;5103808;28;20055;-79
2023/01/03 06:21:21;;;;;;;23.63;13.48;;;;;;;;;;5101063;28;20108;-79
2023/01/03 06:23:47;;;;;;;23.27;14.85;;;;;;;;;;5099094;27;20028;-79
2023/01/03 06:26:14;;;;;;;24.33;14.07;;;;;;;;;;5111441;28;20028;-79
2023/01/03 06:28:40;;;;;;;25.00;14.98;;;;;;;;;;5102439;27;20390;-79
2023/01/03 06:31:06;;;;;;;23.98;13.93;;;;;;;;;;5110239;28;20023;-80
2023/01/03 06:33:32;;;;;;;28.33;15.57;;;;;;;;;;5105443;28;20031;-79
2023/01/03 06:36:09;;;;;;;29.30;16.90;;;;;;;;;;5101068;28;20028;-79
2023/01/03 06:38:35;;;;;;;30.08;16.50;;;;;;;;;;5104161;28;20456;-78
2023/01/03 06:41:01;;;;;;;34.42;18.67;;;;;;;;;;5093517;28;20016;-80
2023/01/03 06:43:27;;;;;;;32.00;17.55;;;;;;;;;;5110838;28;20104;-80
2023/01/03 06:54:09;;;;;;;29.90;15.65;;;;;;;;;;5094753;28;20262;-79
2023/01/03 06:56:35;;;;;;;24.35;14.07;;;;;;;;;;5112686;27;20036;-79
2023/01/03 06:59:01;;;;;;;28.60;14.68;;;;;;;;;;5104795;28;20032;-81
2023/01/03 07:01:27;;;;;;;25.48;14.38;;;;;;;;;;5109409;27;20035;-80
2023/01/03 07:03:53;;;;;;;26.75;15.45;;;;;;;;;;5097591;28;20474;-78
2023/01/03 07:06:19;;;;;;;27.73;16.05;;;;;;;;;;5105819;28;20738;-79
2023/01/03 07:08:45;;;;;;;26.83;17.08;;;;;;;;;;5104715;28;20303;-79
2023/01/03 07:11:11;;;;;;;28.90;16.38;;;;;;;;;;5106383;27;20015;-78
2023/01/03 07:16:22;;;;;;;27.92;15.57;;;;;;;;;;5115277;28;20042;-77
2023/01/03 07:18:49;;;;;;;29.02;15.95;;;;;;;;;;5093527;28;20028;-79
2023/01/03 07:21:15;;;;;;;29.33;16.50;;;;;;;;;;5093219;28;20394;-79
2023/01/03 07:23:41;;;;;;;34.30;17.55;;;;;;;;;;5098602;28;20036;-79
2023/01/03 07:26:07;;;;;;;31.38;16.90;;;;;;;;;;5112712;28;20049;-79
2023/01/03 07:28:33;;;;;;;30.60;16.60;;;;;;;;;;5096933;28;20028;-79
2023/01/03 07:31:00;;;;;;;33.42;16.40;;;;;;;;;;5092582;28;20039;-79
2023/01/03 07:33:26;;;;;;;32.08;17.25;;;;;;;;;;5094018;28;20401;-80
2023/01/03 07:35:52;;;;;;;30.95;17.17;;;;;;;;;;5093684;28;20058;-79
2023/01/03 07:38:18;;;;;;;31.20;16.50;;;;;;;;;;5105763;28;20544;-79
2023/01/03 07:40:44;;;;;;;29.15;16.90;;;;;;;;;;5100069;28;20036;-79
2023/01/03 07:45:56;;;;;;;30.17;16.00;;;;;;;;;;5113703;28;20035;-79
2023/01/03 07:48:22;;;;;;;33.25;17.20;;;;;;;;;;5100989;28;20016;-79
2023/01/03 07:50:48;;;;;;;32.65;18.10;;;;;;;;;;5094351;28;20046;-79
2023/01/03 07:53:15;;;;;;;32.70;17.52;;;;;;;;;;5105888;28;20031;-79
2023/01/03 07:55:43;;;;;;;31.67;18.25;;;;;;;;;;5107597;28;20028;-79
2023/01/03 07:58:09;;;;;;;29.13;16.15;;;;;;;;;;5100794;27;20129;-79
2023/01/03 08:00:35;;;;;;;28.13;16.75;;;;;;;;;;5108595;28;20430;-79
2023/01/03 08:03:01;;;;;;;29.10;16.17;;;;;;;;;;5103609;28;20161;-79
2023/01/03 08:05:27;;;;;;;30.58;16.30;;;;;;;;;;5103772;28;20076;-80
2023/01/03 08:07:56;;;;;;;32.45;19.33;;;;;;;;;;5109480;28;20028;-78
2023/01/03 08:13:17;;;;;;;31.02;18.20;;;;;;;;;;5093585;28;20043;-78
2023/01/03 08:15:44;;;;;;;32.63;15.80;;;;;;;;;;5115167;27;20382;-78
2023/01/03 08:18:11;;;;;;;31.33;17.17;;;;;;;;;;5134311;27;20027;-79
2023/01/03 08:20:37;;;;;;;31.30;16.33;;;;;;;;;;5134132;27;20488;-79
2023/01/03 08:23:03;;;;;;;28.05;15.32;;;;;;;;;;5119249;27;20028;-79
2023/01/03 08:25:29;;;;;;;32.20;17.17;;;;;;;;;;5106220;28;20430;-79
2023/01/03 08:27:59;;;;;;;31.20;19.55;;;;;;;;;;5102207;28;20020;-80
2023/01/03 08:30:25;;;;;;;33.25;19.25;;;;;;;;;;5098720;28;20024;-79
2023/01/03 08:32:53;;;;;;;34.22;19.98;;;;;;;;;;5091662;28;20482;-79
2023/01/03 08:35:19;;;;;;;30.75;17.83;;;;;;;;;;5098298;28;20028;-79
2023/01/03 08:37:46;;;;;;;28.48;16.23;;;;;;;;;;5093193;28;20394;-79
2023/01/03 08:40:13;;;;;;;30.70;16.58;;;;;;;;;;5099384;28;20102;-79
2023/01/03 08:42:39;;;;;;;26.95;15.13;;;;;;;;;;5113359;28;20184;-78
2023/01/03 08:45:08;;;;;;;27.23;15.15;;;;;;;;;;5109795;28;20020;-79
2023/01/03 08:47:34;;;;;;;25.48;16.30;;;;;;;;;;5106901;28;20059;-78
2023/01/03 08:50:01;;;;;;;32.05;18.17;;;;;;;;;;5092627;28;20508;-80
2023/01/03 08:52:27;;;;;;;34.97;17.75;;;;;;;;;;5096007;27;20111;-79
2023/01/03 08:54:53;;;;;;;32.28;18.17;;;;;;;;;;5104843;27;20248;-79
2023/01/03 08:57:19;;;;;;;38.95;21.70;;;;;;;;;;5097701;28;20016;-80
2023/01/03 08:59:45;;;;;;;35.35;20.00;;;;;;;;;;5104643;27;20039;-79
2023/01/03 09:02:11;;;;;;;30.27;19.10;;;;;;;;;;5101530;28;20031;-79
2023/01/03 09:04:37;;;;;;;31.67;17.90;;;;;;;;;;5104572;27;20031;-79
2023/01/03 09:07:04;;;;;;;28.67;15.90;;;;;;;;;;5098165;28;20504;-77
2023/01/03 09:09:30;;;;;;;27.67;16.85;;;;;;;;;;5096618;27;20382;-79
2023/01/03 09:11:56;;;;;;;29.13;16.42;;;;;;;;;;5111340;27;20112;-79
2023/01/03 09:14:22;;;;;;;28.88;16.60;;;;;;;;;;5097953;28;20020;-78
2023/01/03 09:16:48;;;;;;;26.23;15.70;;;;;;;;;;5102788;28;20028;-79
2023/01/03 09:19:14;;;;;;;25.42;16.13;;;;;;;;;;5098302;28;20103;-79
2023/01/03 09:21:40;;;;;;;24.15;14.10;;;;;;;;;;5093731;28;20434;-79
2023/01/03 09:24:06;;;;;;;21.52;13.75;;;;;;;;;;5092766;28;20379;-80
2023/01/03 09:26:32;;;;;;;23.88;14.63;;;;;;;;;;5098311;27;20658;-80
2023/01/03 09:28:58;;;;;;;20.35;12.88;;;;;;;;;;5093528;28;20019;-79
2023/01/03 09:31:24;;;;;;;21.83;13.27;;;;;;;;;;5110304;28;20016;-80
2023/01/03 09:33:50;;;;;;;20.90;13.88;;;;;;;;;;5112999;28;20026;-80
2023/01/03 09:36:16;;;;;;;19.50;13.85;;;;;;;;;;5097266;28;20327;-79
2023/01/03 09:38:42;;;;;;;19.65;13.15;;;;;;;;;;5112353;28;20073;-79
2023/01/03 09:41:12;;;;;;;20.83;12.88;;;;;;;;;;5112768;28;20103;-79
2023/01/03 09:43:42;;;;;;;21.95;14.48;;;;;;;;;;5095865;28;20489;-80
2023/01/03 09:46:19;;;;;;;25.90;16.45;;;;;;;;;;5098923;28;20066;-78
2023/01/03 09:48:45;;;;;;;25.02;16.23;;;;;;;;;;5095163;28;20031;-79
2023/01/03 10:05:34;;;;;;;28.85;19.70;;;;;;;;;;5094435;28;20043;-79
2023/01/03 10:08:03;;;;;;;27.52;16.58;;;;;;;;;;5102787;28;20389;-79
2023/01/03 10:10:32;;;;;;;27.63;17.65;;;;;;;;;;5106016;28;20048;-78
2023/01/03 10:13:01;;;;;;;28.40;18.35;;;;;;;;;;5111552;28;20404;-78
2023/01/03 10:15:57;;;;;;;24.17;15.88;;;;;;;;;;5111041;28;20477;-79
2023/01/03 10:18:38;;;;;;;23.67;15.45;;;;;;;;;;5072036;28;20053;-81
2023/01/03 10:21:16;;;;;;;22.77;15.88;;;;;;;;;;5094545;28;20639;-79
2023/01/03 10:23:42;;;;;;;23.27;15.80;;;;;;;;;;5096379;28;20188;-79
2023/01/03 10:26:12;;;;;;;24.27;16.38;;;;;;;;;;5108689;28;20058;-80
2023/01/03 10:28:40;;;;;;;25.10;16.27;;;;;;;;;;5094649;28;20051;-80
2023/01/03 10:31:06;;;;;;;24.33;16.90;;;;;;;;;;5099848;28;20111;-81
2023/01/03 10:33:32;;;;;;;25.42;16.55;;;;;;;;;;5107986;28;20516;-79
2023/01/03 10:35:58;;;;;;;25.10;16.60;;;;;;;;;;5104803;28;20024;-80
2023/01/03 10:38:24;;;;;;;28.45;17.77;;;;;;;;;;5097221;28;20028;-80
2023/01/03 10:41:00;;;;;;;26.88;17.73;;;;;;;;;;5091512;28;20030;-79
2023/01/03 10:43:40;;;;;;;33.58;20.48;;;;;;;;;;5094064;28;20267;-80
2023/01/03 10:46:13;;;;;;;29.20;19.35;;;;;;;;;;5108409;28;20031;-80
2023/01/03 10:48:40;;;;;;;28.55;18.73;;;;;;;;;;5098139;28;20028;-81
2023/01/03 10:51:22;;;;;;;26.52;17.33;;;;;;;;;;5102676;28;20034;-80
2023/01/03 10:53:49;;;;;;;26.23;16.52;;;;;;;;;;5102833;28;20062;-80
2023/01/03 10:56:16;;;;;;;25.33;18.10;;;;;;;;;;5107962;28;20673;-79
2023/01/03 10:58:42;;;;;;;23.13;16.67;;;;;;;;;;5109244;28;20078;-80
2023/01/03 11:01:17;;;;;;;25.63;16.10;;;;;;;;;;5112479;28;20359;-80
2023/01/03 11:03:43;;;;;;;23.58;15.27;;;;;;;;;;5109511;28;20034;-80
2023/01/03 11:06:14;;;;;;;22.33;15.82;;;;;;;;;;5107647;28;20024;-80
2023/01/03 11:08:45;;;;;;;23.25;15.40;;;;;;;;;;5102293;28;20047;-79
2023/01/03 11:11:34;;;;;;;25.38;17.08;;;;;;;;;;5112068;28;20031;-80
2023/01/03 11:14:07;;;;;;;32.88;20.80;;;;;;;;;;5113884;27;20035;-80
2023/01/03 11:16:33;;;;;;;35.38;22.92;;;;;;;;;;5117512;28;20145;-79
2023/01/03 11:19:00;;;;;;;29.08;18.55;;;;;;;;;;5109649;28;20035;-79
2023/01/03 11:21:30;;;;;;;22.83;16.30;;;;;;;;;;5120040;28;20026;-81
2023/01/03 11:24:03;;;;;;;22.10;14.15;;;;;;;;;;5107956;28;20098;-79
2023/01/03 11:26:48;;;;;;;21.50;13.93;;;;;;;;;;5122897;27;20057;-80
2023/01/03 11:29:14;;;;;;;17.42;12.27;;;;;;;;;;5102622;28;20028;-80
2023/01/03 11:31:58;;;;;;;21.55;14.10;;;;;;;;;;5102319;28;20024;-79
2023/01/03 11:34:24;;;;;;;16.17;10.82;;;;;;;;;;5117890;28;20028;-80
2023/01/03 11:37:09;;;;;;;16.98;10.57;;;;;;;;;;5118030;28;20085;-81
2023/01/03 11:39:43;;;;;;;14.20;9.27;;;;;;;;;;5098962;28;20530;-79
2023/01/03 11:42:12;;;;;;;12.38;8.05;;;;;;;;;;5109015;28;20068;-79
2023/01/03 11:44:44;;;;;;;12.63;8.23;;;;;;;;;;5111466;28;20086;-80
2023/01/03 11:47:19;;;;;;;12.30;7.30;;;;;;;;;;5100721;28;20074;-79
2023/01/03 11:49:58;;;;;;;13.20;6.88;;;;;;;;;;5119549;28;20032;-80
2023/01/03 11:52:29;;;;;;;9.55;4.78;;;;;;;;;;5119249;28;20493;-81
2023/01/03 11:55:10;;;;;;;8.55;4.43;;;;;;;;;;5105458;28;20034;-81
2023/01/03 11:57:39;;;;;;;8.73;4.07;;;;;;;;;;5098842;28;20031;-80
2023/01/03 12:00:11;;;;;;;7.50;4.30;;;;;;;;;;5096814;28;20028;-80
2023/01/03 12:02:54;;;;;;;7.35;4.40;;;;;;;;;;5099730;28;20096;-82
2023/01/03 12:05:40;;;;;;;8.77;4.43;;;;;;;;;;5105047;28;20405;-81
2023/01/03 12:08:07;;;;;;;8.65;4.78;;;;;;;;;;5107754;27;20020;-82
2023/01/03 12:11:11;;;;;;;7.47;5.13;;;;;;;;;;5108075;28;20035;-82
2023/01/03 12:13:37;;;;;;;8.40;4.80;;;;;;;;;;5053237;28;20410;-82
2023/01/03 12:16:12;;;;;;;7.85;4.60;;;;;;;;;;5041936;28;20025;-81
2023/01/03 12:18:41;;;;;;;10.07;5.13;;;;;;;;;;5075034;28;20049;-82
2023/01/03 12:21:18;;;;;;;8.55;4.47;;;;;;;;;;5069962;28;20032;-82
2023/01/03 12:23:50;;;;;;;9.38;4.25;;;;;;;;;;5086619;28;20460;-82
2023/01/03 12:26:16;;;;;;;8.13;5.45;;;;;;;;;;5077052;28;20048;-81
2023/01/03 12:28:47;;;;;;;10.00;6.63;;;;;;;;;;5067607;28;20086;-82
2023/01/03 12:31:35;;;;;;;8.32;5.13;;;;;;;;;;5059386;28;20033;-82
2023/01/03 12:34:10;;;;;;;8.40;4.80;;;;;;;;;;5073759;28;20532;-82
2023/01/03 12:36:51;;;;;;;9.63;5.85;;;;;;;;;;5074341;28;20028;-82
2023/01/03 12:39:35;;;;;;;8.10;5.45;;;;;;;;;;5072792;28;20033;-82
2023/01/03 12:42:14;;;;;;;8.98;5.43;;;;;;;;;;5064603;28;20147;-83
2023/01/03 12:44:41;;;;;;;6.78;4.75;;;;;;;;;;5100501;28;20048;-83
2023/01/03 12:47:13;;;;;;;8.65;5.40;;;;;;;;;;5117606;28;20024;-82
2023/01/03 12:49:47;;;;;;;8.60;5.18;;;;;;;;;;5114888;28;20059;-82
2023/01/03 12:52:15;;;;;;;7.07;4.95;;;;;;;;;;5111515;27;20137;-82
2023/01/03 12:54:47;;;;;;;9.05;5.47;;;;;;;;;;5116340;28;20023;-82
2023/01/03 12:57:13;;;;;;;8.82;5.63;;;;;;;;;;5117383;28;20047;-82
2023/01/03 12:59:49;;;;;;;10.27;5.93;;;;;;;;;;5118364;28;20020;-82
2023/01/03 13:02:19;;;;;;;9.27;6.03;;;;;;;;;;5112421;28;20028;-83
2023/01/03 13:04:48;;;;;;;10.35;5.97;;;;;;;;;;5122484;28;20027;-81
2023/01/03 13:07:14;;;;;;;10.13;6.43;;;;;;;;;;5116008;28;20118;-83
2023/01/03 13:09:41;;;;;;;9.60;6.20;;;;;;;;;;5102177;28;20112;-83
2023/01/03 13:12:22;;;;;;;11.75;7.05;;;;;;;;;;5121662;28;20020;-83
2023/01/03 13:15:14;;;;;;;10.63;6.80;;;;;;;;;;5120872;28;20028;-82
2023/01/03 13:17:46;;;;;;;11.63;6.78;;;;;;;;;;5107910;28;20027;-81
2023/01/03 13:20:30;;;;;;;12.63;6.97;;;;;;;;;;5111868;28;20024;-83
2023/01/03 13:22:57;;;;;;;9.35;6.05;;;;;;;;;;5106181;28;20026;-83
2023/01/03 13:25:26;;;;;;;10.52;6.40;;;;;;;;;;5121556;28;20601;-83
2023/01/03 13:27:53;;;;;;;10.50;6.53;;;;;;;;;;5120304;28;20047;-82
2023/01/03 13:30:23;;;;;;;12.52;7.47;;;;;;;;;;5109938;28;20046;-83
2023/01/03 13:33:01;;;;;;;11.00;8.15;;;;;;;;;;5123516;27;20068;-83
2023/01/03 13:35:31;;;;;;;12.93;9.30;;;;;;;;;;5112715;28;20046;-83
2023/01/03 13:38:00;;;;;;;13.55;10.00;;;;;;;;;;5121785;28;20043;-81
2023/01/03 13:40:29;;;;;;;12.50;9.10;;;;;;;;;;5121932;27;20031;-81
2023/01/03 13:43:02;;;;;;;14.15;9.93;;;;;;;;;;5117266;28;20419;-80
2023/01/03 13:45:31;;;;;;;13.05;9.13;;;;;;;;;;5101243;28;20176;-81
2023/01/03 13:47:57;;;;;;;12.00;9.52;;;;;;;;;;5110097;28;20042;-83
2023/01/03 13:50:26;;;;;;;9.27;6.38;;;;;;;;;;5109769;28;20035;-82
2023/01/03 13:53:02;;;;;;;10.50;6.53;;;;;;;;;;5102108;28;20026;-84
2023/01/03 13:55:34;;;;;;;10.90;6.97;;;;;;;;;;5111684;28;20390;-82
2023/01/03 13:58:00;;;;;;;9.10;5.32;;;;;;;;;;5108923;28;20081;-82
2023/01/03 14:00:26;;;;;;;10.68;7.55;;;;;;;;;;5098907;28;20410;-82
2023/01/03 14:03:28;;;;;;;14.55;10.45;;;;;;;;;;5098981;28;20103;-85
2023/01/03 14:05:54;;;;;;;16.05;11.07;;;;;;;;;;5057185;28;20115;-82
2023/01/03 14:08:32;;;;;;;16.52;11.60;;;;;;;;;;5105120;28;20051;-81
2023/01/03 14:11:01;;;;;;;14.55;10.05;;;;;;;;;;5106900;28;20059;-82
2023/01/03 14:13:30;;;;;;;13.65;10.07;;;;;;;;;;5117967;28;20084;-81
2023/01/03 14:16:15;;;;;;;14.23;9.40;;;;;;;;;;5105855;28;20062;-81
2023/01/03 14:18:45;;;;;;;15.68;10.05;;;;;;;;;;5101312;28;20024;-83
2023/01/03 14:21:15;;;;;;;13.82;9.75;;;;;;;;;;5099335;28;20024;-81
2023/01/03 14:23:41;;;;;;;11.68;8.82;;;;;;;;;;5116018;28;20206;-83
2023/01/03 14:26:18;;;;;;;14.55;10.00;;;;;;;;;;5112849;28;20034;-81
2023/01/03 14:28:48;;;;;;;13.77;9.77;;;;;;;;;;5129011;28;20055;-84
2023/01/03 14:31:19;;;;;;;12.80;8.90;;;;;;;;;;5109748;28;20028;-81
2023/01/03 14:33:50;;;;;;;13.13;9.43;;;;;;;;;;5103717;28;20039;-82
2023/01/03 14:36:16;;;;;;;21.00;13.65;;;;;;;;;;5102986;28;20054;-84
2023/01/03 14:38:59;;;;;;;18.20;11.15;;;;;;;;;;5103178;28;20401;-84
2023/01/03 14:41:29;;;;;;;29.90;20.97;;;;;;;;;;5104113;28;20024;-85
2023/01/03 14:44:06;;;;;;;21.23;15.30;;;;;;;;;;5117167;28;20114;-85
2023/01/03 14:46:32;;;;;;;15.35;10.05;;;;;;;;;;5117900;28;20486;-83
2023/01/03 14:49:00;;;;;;;31.83;21.20;;;;;;;;;;5104954;27;20032;-82
2023/01/03 14:51:26;;;;;;;32.88;21.15;;;;;;;;;;5105077;28;20318;-82
2023/01/03 14:53:52;;;;;;;17.65;10.70;;;;;;;;;;5117072;28;20066;-82
2023/01/03 14:56:22;;;;;;;21.92;15.05;;;;;;;;;;5117352;28;20019;-81
2023/01/03 14:58:49;;;;;;;14.77;10.45;;;;;;;;;;5110441;28;20028;-82
2023/01/03 15:01:15;;;;;;;11.60;7.22;;;;;;;;;;5121387;28;20046;-83
2023/01/03 15:03:47;;;;;;;14.48;7.00;;;;;;;;;;5120706;28;20031;-83
2023/01/03 15:06:24;;;;;;;15.13;7.53;;;;;;;;;;5113887;27;20087;-83
2023/01/03 15:08:57;;;;;;;11.48;7.32;;;;;;;;;;5119922;28;20027;-83
2023/01/03 15:11:26;;;;;;;12.80;8.05;;;;;;;;;;5116987;28;20024;-83
2023/01/03 15:14:06;;;;;;;12.80;8.00;;;;;;;;;;5114356;28;20034;-82
2023/01/03 15:16:33;;;;;;;13.93;8.48;;;;;;;;;;5118929;27;20024;-83
2023/01/03 15:19:02;;;;;;;11.45;8.45;;;;;;;;;;5113549;27;20038;-83
2023/01/03 15:21:29;;;;;;;11.35;7.50;;;;;;;;;;5118359;27;20097;-83
2023/01/03 15:23:55;;;;;;;9.90;6.20;;;;;;;;;;5130791;27;20038;-80
2023/01/03 15:26:22;;;;;;;9.60;6.00;;;;;;;;;;5117407;28;20030;-83
2023/01/03 15:28:53;;;;;;;10.18;6.28;;;;;;;;;;5106762;28;20474;-82
2023/01/03 15:31:32;;;;;;;13.15;9.02;;;;;;;;;;5115777;28;20031;-83
2023/01/03 15:34:18;;;;;;;14.02;8.98;;;;;;;;;;5107836;28;20038;-83